sensor_id;sensor_type;location;lat;lon;timestamp;pressure;altitude;pressure_sealevel;temperature;humidity
35553;BME280;21656;46.054;13.614;2023-03-01T07:34:50;100897.78;;;5.72;65.15
35553;BME280;21656;46.054;13.614;2023-03-01T07:37:16;100863.50;;;5.80;64.74
35553;BME280;21656;46.054;13.614;2023-03-01T07:39:41;100888.56;;;5.78;64.17
35553;BME280;21656;46.054;13.614;2023-03-01T07:42:07;100874.06;;;5.82;63.98
35553;BME280;21656;46.054;13.614;2023-03-01T07:44:32;100891.69;;;5.86;64.07
35553;BME280;21656;46.054;13.614;2023-03-01T07:46:57;100871.72;;;5.93;63.99
35553;BME280;21656;46.054;13.614;2023-03-01T07:49:23;100882.25;;;5.96;63.04
35553;BME280;21656;46.054;13.614;2023-03-01T07:51:48;100872.09;;;6.03;62.83
35553;BME280;21656;46.054;13.614;2023-03-01T07:54:13;100877.03;;;6.11;63.37
35553;BME280;21656;46.054;13.614;2023-03-01T07:56:39;100885.91;;;6.11;63.24
35553;BME280;21656;46.054;13.614;2023-03-01T07:59:05;100863.38;;;6.15;63.22
35553;BME280;21656;46.054;13.614;2023-03-01T08:01:30;100879.97;;;6.06;62.38
35553;BME280;21656;46.054;13.614;2023-03-01T08:03:56;100871.16;;;6.04;62.60
35553;BME280;21656;46.054;13.614;2023-03-01T08:06:21;100852.38;;;6.05;62.71
35553;BME280;21656;46.054;13.614;2023-03-01T08:08:46;100892.72;;;6.17;63.03
35553;BME280;21656;46.054;13.614;2023-03-01T08:11:12;100872.91;;;6.21;63.24
35553;BME280;21656;46.054;13.614;2023-03-01T08:13:38;100866.69;;;6.20;62.43
35553;BME280;21656;46.054;13.614;2023-03-01T08:16:04;100862.22;;;6.21;62.74
35553;BME280;21656;46.054;13.614;2023-03-01T08:18:30;100892.50;;;6.37;62.11
35553;BME280;21656;46.054;13.614;2023-03-01T08:20:56;100882.66;;;6.38;61.74
35553;BME280;21656;46.054;13.614;2023-03-01T08:23:25;100876.53;;;6.51;60.91
35553;BME280;21656;46.054;13.614;2023-03-01T08:25:51;100868.75;;;6.63;60.86
35553;BME280;21656;46.054;13.614;2023-03-01T08:28:17;100869.19;;;6.87;60.80
35553;BME280;21656;46.054;13.614;2023-03-01T08:30:43;100853.13;;;7.17;60.58
35553;BME280;21656;46.054;13.614;2023-03-01T08:33:08;100853.44;;;7.27;58.83
35553;BME280;21656;46.054;13.614;2023-03-01T08:35:33;100848.88;;;7.43;57.95
35553;BME280;21656;46.054;13.614;2023-03-01T08:37:58;100837.97;;;7.46;57.66
35553;BME280;21656;46.054;13.614;2023-03-01T08:40:24;100850.03;;;7.53;57.99
35553;BME280;21656;46.054;13.614;2023-03-01T08:42:49;100822.84;;;7.74;57.43
35553;BME280;21656;46.054;13.614;2023-03-01T08:45:14;100843.06;;;7.94;57.52
35553;BME280;21656;46.054;13.614;2023-03-01T08:47:43;100830.56;;;8.21;55.57
35553;BME280;21656;46.054;13.614;2023-03-01T08:50:09;100859.13;;;8.22;54.77
35553;BME280;21656;46.054;13.614;2023-03-01T08:52:34;100840.75;;;8.16;55.13
35553;BME280;21656;46.054;13.614;2023-03-01T08:55:00;100828.81;;;8.35;54.67
35553;BME280;21656;46.054;13.614;2023-03-01T08:57:26;100827.41;;;8.15;54.77
35553;BME280;21656;46.054;13.614;2023-03-01T08:59:51;100805.69;;;8.05;55.11
35553;BME280;21656;46.054;13.614;2023-03-01T09:02:17;100831.34;;;8.09;55.85
35553;BME280;21656;46.054;13.614;2023-03-01T09:04:43;100823.97;;;8.41;55.89
35553;BME280;21656;46.054;13.614;2023-03-01T09:07:09;100821.91;;;8.45;55.21
35553;BME280;21656;46.054;13.614;2023-03-01T09:09:34;100815.94;;;8.68;54.39
35553;BME280;21656;46.054;13.614;2023-03-01T09:12:00;100791.34;;;8.75;54.04
35553;BME280;21656;46.054;13.614;2023-03-01T09:14:25;100802.31;;;8.84;53.97
35553;BME280;21656;46.054;13.614;2023-03-01T09:16:51;100808.00;;;8.80;53.41
35553;BME280;21656;46.054;13.614;2023-03-01T09:19:16;100788.59;;;8.89;53.85
35553;BME280;21656;46.054;13.614;2023-03-01T09:21:41;100800.94;;;8.92;53.23
35553;BME280;21656;46.054;13.614;2023-03-01T09:24:17;100800.94;;;8.92;53.76
35553;BME280;21656;46.054;13.614;2023-03-01T09:26:43;100778.97;;;9.12;53.56
35553;BME280;21656;46.054;13.614;2023-03-01T09:29:11;100789.44;;;8.89;53.00
35553;BME280;21656;46.054;13.614;2023-03-01T09:31:37;100791.59;;;8.97;53.44
35553;BME280;21656;46.054;13.614;2023-03-01T09:34:02;100813.84;;;8.86;52.21
35553;BME280;21656;46.054;13.614;2023-03-01T09:36:29;100777.94;;;8.87;52.94
35553;BME280;21656;46.054;13.614;2023-03-01T09:38:54;100787.63;;;8.90;53.39
35553;BME280;21656;46.054;13.614;2023-03-01T09:43:55;100767.59;;;8.68;54.46
35553;BME280;21656;46.054;13.614;2023-03-01T09:46:23;100764.66;;;8.59;53.94
35553;BME280;21656;46.054;13.614;2023-03-01T09:48:50;100760.09;;;8.46;53.96
35553;BME280;21656;46.054;13.614;2023-03-01T09:51:23;100769.97;;;8.46;54.65
35553;BME280;21656;46.054;13.614;2023-03-01T09:53:51;100772.84;;;8.43;54.85
35553;BME280;21656;46.054;13.614;2023-03-01T09:56:20;100806.88;;;8.42;55.34
35553;BME280;21656;46.054;13.614;2023-03-01T09:58:48;100785.28;;;8.58;54.87
35553;BME280;21656;46.054;13.614;2023-03-01T10:06:31;100778.78;;;8.48;54.54
35553;BME280;21656;46.054;13.614;2023-03-01T10:08:58;100769.72;;;8.63;55.33
35553;BME280;21656;46.054;13.614;2023-03-01T10:11:26;100755.38;;;8.90;54.87
35553;BME280;21656;46.054;13.614;2023-03-01T10:14:09;100748.31;;;8.89;53.87
35553;BME280;21656;46.054;13.614;2023-03-01T10:16:46;100760.94;;;8.74;54.16
35553;BME280;21656;46.054;13.614;2023-03-01T10:19:15;100755.75;;;8.58;54.85
35553;BME280;21656;46.054;13.614;2023-03-01T10:21:43;100764.09;;;8.54;55.32
35553;BME280;21656;46.054;13.614;2023-03-01T10:24:10;100757.50;;;8.45;55.35
35553;BME280;21656;46.054;13.614;2023-03-01T10:27:37;100775.06;;;8.36;55.57
35553;BME280;21656;46.054;13.614;2023-03-01T10:29:34;100766.41;;;8.18;55.99
35553;BME280;21656;46.054;13.614;2023-03-01T10:32:03;100775.31;;;8.19;56.20
35553;BME280;21656;46.054;13.614;2023-03-01T10:34:32;100738.31;;;8.10;56.53
35553;BME280;21656;46.054;13.614;2023-03-01T10:37:21;100755.69;;;8.04;56.99
35553;BME280;21656;46.054;13.614;2023-03-01T10:42:32;100719.47;;;8.11;57.42
35553;BME280;21656;46.054;13.614;2023-03-01T10:44:58;100750.53;;;8.01;57.01
35553;BME280;21656;46.054;13.614;2023-03-01T10:47:39;100725.34;;;8.03;57.66
35553;BME280;21656;46.054;13.614;2023-03-01T10:50:05;100725.03;;;8.08;57.35
35553;BME280;21656;46.054;13.614;2023-03-01T10:52:35;100707.75;;;8.12;57.31
35553;BME280;21656;46.054;13.614;2023-03-01T10:55:02;100706.06;;;8.11;57.42
35553;BME280;21656;46.054;13.614;2023-03-01T10:57:29;100739.88;;;8.14;57.48
35553;BME280;21656;46.054;13.614;2023-03-01T11:02:40;100712.56;;;8.34;57.04
35553;BME280;21656;46.054;13.614;2023-03-01T11:07:56;100717.41;;;8.56;56.84
35553;BME280;21656;46.054;13.614;2023-03-01T11:10:23;100709.47;;;8.67;56.40
35553;BME280;21656;46.054;13.614;2023-03-01T11:12:50;100721.88;;;8.56;56.29
35553;BME280;21656;46.054;13.614;2023-03-01T11:15:24;100730.19;;;8.65;56.37
35553;BME280;21656;46.054;13.614;2023-03-01T11:17:50;100711.91;;;8.58;56.65
35553;BME280;21656;46.054;13.614;2023-03-01T11:20:21;100742.72;;;8.52;56.86
35553;BME280;21656;46.054;13.614;2023-03-01T11:22:50;100730.47;;;8.48;56.71
35553;BME280;21656;46.054;13.614;2023-03-01T11:25:17;100730.38;;;8.50;56.77
35553;BME280;21656;46.054;13.614;2023-03-01T11:27:44;100749.81;;;8.53;57.17
35553;BME280;21656;46.054;13.614;2023-03-01T11:30:21;100737.13;;;8.55;56.87
35553;BME280;21656;46.054;13.614;2023-03-01T11:32:53;100774.41;;;8.60;56.67
35553;BME280;21656;46.054;13.614;2023-03-01T11:35:26;100757.38;;;8.61;56.50
35553;BME280;21656;46.054;13.614;2023-03-01T11:40:24;100726.78;;;8.63;56.98
35553;BME280;21656;46.054;13.614;2023-03-01T11:45:55;100733.81;;;8.52;57.52
35553;BME280;21656;46.054;13.614;2023-03-01T11:50:55;100754.63;;;8.48;57.42
35553;BME280;21656;46.054;13.614;2023-03-01T11:53:59;100749.16;;;8.50;58.14
35553;BME280;21656;46.054;13.614;2023-03-01T11:59:03;100740.03;;;8.52;57.64
35553;BME280;21656;46.054;13.614;2023-03-01T12:01:32;100737.59;;;8.62;57.69
35553;BME280;21656;46.054;13.614;2023-03-01T12:07:18;100726.44;;;8.68;57.42
35553;BME280;21656;46.054;13.614;2023-03-01T12:25:25;100746.69;;;8.99;56.01
35553;BME280;21656;46.054;13.614;2023-03-01T12:38:42;100763.31;;;8.79;57.21
35553;BME280;21656;46.054;13.614;2023-03-01T12:48:58;100755.28;;;8.92;56.77
35553;BME280;21656;46.054;13.614;2023-03-01T12:51:28;100771.94;;;8.97;57.26
35553;BME280;21656;46.054;13.614;2023-03-01T12:53:55;100755.94;;;8.95;56.71
35553;BME280;21656;46.054;13.614;2023-03-01T12:56:26;100743.13;;;8.99;56.55
35553;BME280;21656;46.054;13.614;2023-03-01T12:58:59;100729.28;;;9.05;56.71
35553;BME280;21656;46.054;13.614;2023-03-01T13:09:14;100704.69;;;9.11;57.36
35553;BME280;21656;46.054;13.614;2023-03-01T13:11:44;100704.59;;;9.00;57.39
35553;BME280;21656;46.054;13.614;2023-03-01T13:16:51;100688.88;;;8.94;57.63
35553;BME280;21656;46.054;13.614;2023-03-01T13:19:17;100687.25;;;8.91;57.77
35553;BME280;21656;46.054;13.614;2023-03-01T13:21:43;100664.28;;;8.87;58.05
35553;BME280;21656;46.054;13.614;2023-03-01T13:29:43;100675.25;;;8.84;58.25
35553;BME280;21656;46.054;13.614;2023-03-01T13:34:51;100660.22;;;8.94;58.08
35553;BME280;21656;46.054;13.614;2023-03-01T13:37:24;100643.56;;;8.89;58.13
35553;BME280;21656;46.054;13.614;2023-03-01T13:39:51;100650.19;;;8.96;58.07
35553;BME280;21656;46.054;13.614;2023-03-01T13:42:33;100656.44;;;8.97;57.93
35553;BME280;21656;46.054;13.614;2023-03-01T13:44:59;100646.88;;;9.05;57.47
35553;BME280;21656;46.054;13.614;2023-03-01T13:47:25;100651.50;;;9.03;58.07
35553;BME280;21656;46.054;13.614;2023-03-01T13:54:55;100653.75;;;9.09;58.15
35553;BME280;21656;46.054;13.614;2023-03-01T13:57:22;100640.31;;;9.09;58.06
35553;BME280;21656;46.054;13.614;2023-03-01T13:59:49;100640.09;;;9.13;58.76
35553;BME280;21656;46.054;13.614;2023-03-01T14:02:15;100625.78;;;9.25;57.84
35553;BME280;21656;46.054;13.614;2023-03-01T14:04:40;100624.25;;;9.33;57.61
35553;BME280;21656;46.054;13.614;2023-03-01T14:09:34;100616.00;;;9.24;57.79
35553;BME280;21656;46.054;13.614;2023-03-01T14:20:01;100620.28;;;9.26;57.98
35553;BME280;21656;46.054;13.614;2023-03-01T14:22:33;100609.78;;;9.23;58.22
35553;BME280;21656;46.054;13.614;2023-03-01T14:25:00;100610.28;;;9.28;57.68
35553;BME280;21656;46.054;13.614;2023-03-01T14:27:37;100641.91;;;9.25;58.24
35553;BME280;21656;46.054;13.614;2023-03-01T14:30:26;100614.19;;;9.24;58.04
35553;BME280;21656;46.054;13.614;2023-03-01T14:32:57;100621.28;;;9.25;57.58
35553;BME280;21656;46.054;13.614;2023-03-01T14:35:24;100606.13;;;9.24;58.04
35553;BME280;21656;46.054;13.614;2023-03-01T14:37:50;100603.31;;;9.26;57.66
35553;BME280;21656;46.054;13.614;2023-03-01T14:40:22;100610.44;;;9.27;58.28
35553;BME280;21656;46.054;13.614;2023-03-01T14:42:49;100596.22;;;9.25;58.39
35553;BME280;21656;46.054;13.614;2023-03-01T14:45:14;100596.56;;;9.20;58.73
35553;BME280;21656;46.054;13.614;2023-03-01T14:47:39;100599.34;;;9.19;58.70
35553;BME280;21656;46.054;13.614;2023-03-01T14:52:37;100631.69;;;9.30;58.36
35553;BME280;21656;46.054;13.614;2023-03-01T14:55:04;100617.72;;;9.38;58.07
35553;BME280;21656;46.054;13.614;2023-03-01T14:57:30;100630.72;;;9.31;58.23
35553;BME280;21656;46.054;13.614;2023-03-01T14:59:59;100638.03;;;9.29;58.93
35553;BME280;21656;46.054;13.614;2023-03-01T15:02:29;100641.59;;;9.29;59.08
35553;BME280;21656;46.054;13.614;2023-03-01T15:04:56;100630.84;;;9.29;58.88
35553;BME280;21656;46.054;13.614;2023-03-01T15:07:24;100639.00;;;9.28;58.64
35553;BME280;21656;46.054;13.614;2023-03-01T15:09:51;100618.16;;;9.19;59.15
35553;BME280;21656;46.054;13.614;2023-03-01T15:15:06;100620.28;;;9.26;58.90
35553;BME280;21656;46.054;13.614;2023-03-01T15:17:44;100629.56;;;9.22;59.16
35553;BME280;21656;46.054;13.614;2023-03-01T15:20:17;100617.59;;;9.26;58.54
35553;BME280;21656;46.054;13.614;2023-03-01T15:22:43;100624.47;;;9.43;58.15
35553;BME280;21656;46.054;13.614;2023-03-01T15:25:20;100622.03;;;9.27;59.01
35553;BME280;21656;46.054;13.614;2023-03-01T15:27:47;100604.41;;;9.23;59.09
35553;BME280;21656;46.054;13.614;2023-03-01T15:30:23;100590.19;;;9.21;59.58
35553;BME280;21656;46.054;13.614;2023-03-01T15:33:16;100575.81;;;9.22;59.58
35553;BME280;21656;46.054;13.614;2023-03-01T15:35:44;100578.59;;;9.21;59.33
35553;BME280;21656;46.054;13.614;2023-03-01T15:40:58;100590.66;;;9.15;59.65
35553;BME280;21656;46.054;13.614;2023-03-01T15:43:40;100573.22;;;9.21;60.80
35553;BME280;21656;46.054;13.614;2023-03-01T15:46:12;100603.66;;;9.08;60.69
35553;BME280;21656;46.054;13.614;2023-03-01T15:48:43;100597.78;;;8.90;61.52
35553;BME280;21656;46.054;13.614;2023-03-01T15:51:10;100602.41;;;8.76;62.24
35553;BME280;21656;46.054;13.614;2023-03-01T15:53:37;100576.75;;;8.72;62.88
35553;BME280;21656;46.054;13.614;2023-03-01T15:56:03;100542.72;;;8.59;63.36
35553;BME280;21656;46.054;13.614;2023-03-01T15:58:28;100567.84;;;8.58;64.14
35553;BME280;21656;46.054;13.614;2023-03-01T16:00:53;100576.53;;;8.49;66.16
35553;BME280;21656;46.054;13.614;2023-03-01T16:03:22;100568.19;;;8.27;69.81
35553;BME280;21656;46.054;13.614;2023-03-01T16:05:50;100559.28;;;8.13;71.23
35553;BME280;21656;46.054;13.614;2023-03-01T16:08:16;100593.69;;;8.07;72.39
35553;BME280;21656;46.054;13.614;2023-03-01T16:10:42;100583.03;;;7.92;75.78
35553;BME280;21656;46.054;13.614;2023-03-01T16:13:11;100577.03;;;7.89;76.93
35553;BME280;21656;46.054;13.614;2023-03-01T16:15:36;100559.84;;;7.78;78.54
35553;BME280;21656;46.054;13.614;2023-03-01T16:18:02;100553.38;;;7.68;80.62
35553;BME280;21656;46.054;13.614;2023-03-01T16:20:28;100573.50;;;7.61;82.57
35553;BME280;21656;46.054;13.614;2023-03-01T16:22:54;100574.97;;;7.52;84.59
35553;BME280;21656;46.054;13.614;2023-03-01T16:25:20;100584.06;;;7.50;86.56
35553;BME280;21656;46.054;13.614;2023-03-01T16:27:46;100569.13;;;7.46;86.58
35553;BME280;21656;46.054;13.614;2023-03-01T16:30:12;100576.19;;;7.47;87.87
35553;BME280;21656;46.054;13.614;2023-03-01T16:32:41;100594.22;;;7.45;89.23
35553;BME280;21656;46.054;13.614;2023-03-01T16:35:07;100574.91;;;7.40;89.75
35553;BME280;21656;46.054;13.614;2023-03-01T16:37:34;100550.66;;;7.41;90.32
35553;BME280;21656;46.054;13.614;2023-03-01T16:40:00;100582.06;;;7.39;91.73
35553;BME280;21656;46.054;13.614;2023-03-01T16:42:25;100585.78;;;7.36;91.96
35553;BME280;21656;46.054;13.614;2023-03-01T16:44:54;100613.28;;;7.40;92.43
35553;BME280;21656;46.054;13.614;2023-03-01T16:47:20;100617.94;;;7.36;91.62
35553;BME280;21656;46.054;13.614;2023-03-01T16:49:45;100622.84;;;7.30;92.98
35553;BME280;21656;46.054;13.614;2023-03-01T16:52:11;100611.84;;;7.34;93.66
35553;BME280;21656;46.054;13.614;2023-03-01T16:54:36;100629.84;;;7.32;94.47
35553;BME280;21656;46.054;13.614;2023-03-01T16:57:02;100632.50;;;7.32;94.52
35553;BME280;21656;46.054;13.614;2023-03-01T16:59:27;100630.41;;;7.23;96.47
35553;BME280;21656;46.054;13.614;2023-03-01T17:01:52;100647.91;;;7.29;95.93
35553;BME280;21656;46.054;13.614;2023-03-01T17:04:17;100655.09;;;7.28;95.50
35553;BME280;21656;46.054;13.614;2023-03-01T17:06:43;100676.63;;;7.27;95.26
35553;BME280;21656;46.054;13.614;2023-03-01T17:09:08;100662.34;;;7.26;95.46
35553;BME280;21656;46.054;13.614;2023-03-01T17:11:34;100677.69;;;7.24;96.54
35553;BME280;21656;46.054;13.614;2023-03-01T17:14:00;100661.41;;;7.27;95.63
35553;BME280;21656;46.054;13.614;2023-03-01T17:16:25;100680.81;;;7.31;96.33
35553;BME280;21656;46.054;13.614;2023-03-01T17:18:51;100663.81;;;7.32;95.81
35553;BME280;21656;46.054;13.614;2023-03-01T17:21:17;100666.38;;;7.33;96.34
35553;BME280;21656;46.054;13.614;2023-03-01T17:23:43;100651.91;;;7.36;96.79
35553;BME280;21656;46.054;13.614;2023-03-01T17:26:09;100667.72;;;7.41;96.35
35553;BME280;21656;46.054;13.614;2023-03-01T17:28:34;100667.34;;;7.32;98.90
35553;BME280;21656;46.054;13.614;2023-03-01T17:31:01;100686.88;;;7.34;97.18
35553;BME280;21656;46.054;13.614;2023-03-01T17:33:27;100668.28;;;7.31;99.01
35553;BME280;21656;46.054;13.614;2023-03-01T17:35:55;100652.97;;;7.33;99.25
35553;BME280;21656;46.054;13.614;2023-03-01T17:38:20;100667.34;;;7.32;99.50
35553;BME280;21656;46.054;13.614;2023-03-01T17:40:46;100665.53;;;7.33;100.00
35553;BME280;21656;46.054;13.614;2023-03-01T17:43:11;100674.91;;;7.26;100.00
35553;BME280;21656;46.054;13.614;2023-03-01T17:45:37;100684.84;;;7.24;100.00
35553;BME280;21656;46.054;13.614;2023-03-01T17:48:03;100677.84;;;7.21;100.00
35553;BME280;21656;46.054;13.614;2023-03-01T17:50:28;100687.41;;;7.11;100.00
35553;BME280;21656;46.054;13.614;2023-03-01T17:52:54;100679.50;;;7.09;100.00
35553;BME280;21656;46.054;13.614;2023-03-01T17:55:22;100649.16;;;7.09;100.00
35553;BME280;21656;46.054;13.614;2023-03-01T17:57:48;100657.59;;;7.03;100.00
35553;BME280;21656;46.054;13.614;2023-03-01T18:00:14;100676.41;;;7.01;100.00
35553;BME280;21656;46.054;13.614;2023-03-01T18:02:40;100657.84;;;6.98;100.00
35553;BME280;21656;46.054;13.614;2023-03-01T18:05:05;100690.75;;;7.00;100.00
35553;BME280;21656;46.054;13.614;2023-03-01T18:07:31;100703.31;;;7.00;100.00
35553;BME280;21656;46.054;13.614;2023-03-01T18:09:56;100700.63;;;7.00;100.00
35553;BME280;21656;46.054;13.614;2023-03-01T18:12:21;100683.50;;;7.02;100.00
35553;BME280;21656;46.054;13.614;2023-03-01T18:14:49;100716.69;;;7.00;100.00
35553;BME280;21656;46.054;13.614;2023-03-01T18:17:20;100705.78;;;7.03;100.00
35553;BME280;21656;46.054;13.614;2023-03-01T18:19:46;100730.38;;;7.09;100.00
35553;BME280;21656;46.054;13.614;2023-03-01T18:22:11;100719.66;;;7.09;100.00
35553;BME280;21656;46.054;13.614;2023-03-01T18:24:37;100738.31;;;7.11;100.00
35553;BME280;21656;46.054;13.614;2023-03-01T18:27:02;100746.44;;;7.09;100.00
35553;BME280;21656;46.054;13.614;2023-03-01T18:29:28;100743.78;;;7.09;100.00
35553;BME280;21656;46.054;13.614;2023-03-01T18:31:53;100738.09;;;7.14;100.00
35553;BME280;21656;46.054;13.614;2023-03-01T18:34:18;100738.31;;;7.11;100.00
35553;BME280;21656;46.054;13.614;2023-03-01T18:36:43;100734.56;;;7.13;100.00
35553;BME280;21656;46.054;13.614;2023-03-01T18:39:09;100731.13;;;7.11;100.00
35553;BME280;21656;46.054;13.614;2023-03-01T18:41:35;100723.22;;;7.10;100.00
35553;BME280;21656;46.054;13.614;2023-03-01T18:44:02;100727.69;;;7.09;100.00
35553;BME280;21656;46.054;13.614;2023-03-01T18:46:28;100732.94;;;7.11;100.00
35553;BME280;21656;46.054;13.614;2023-03-01T18:48:53;100738.03;;;7.15;100.00
35553;BME280;21656;46.054;13.614;2023-03-01T18:51:20;100729.13;;;7.15;100.00
35553;BME280;21656;46.054;13.614;2023-03-01T18:53:45;100728.38;;;7.13;100.00
35553;BME280;21656;46.054;13.614;2023-03-01T18:56:11;100733.53;;;7.16;100.00
35553;BME280;21656;46.054;13.614;2023-03-01T18:58:36;100724.34;;;7.20;100.00
35553;BME280;21656;46.054;13.614;2023-03-01T19:01:03;100750.94;;;7.23;100.00
35553;BME280;21656;46.054;13.614;2023-03-01T19:03:31;100748.19;;;7.25;100.00
35553;BME280;21656;46.054;13.614;2023-03-01T19:05:57;100751.44;;;7.30;100.00
35553;BME280;21656;46.054;13.614;2023-03-01T19:08:25;100759.69;;;7.27;100.00
35553;BME280;21656;46.054;13.614;2023-03-01T19:10:54;100781.38;;;7.36;100.00
35553;BME280;21656;46.054;13.614;2023-03-01T19:13:19;100775.94;;;7.38;100.00
35553;BME280;21656;46.054;13.614;2023-03-01T19:15:45;100794.69;;;7.38;100.00
35553;BME280;21656;46.054;13.614;2023-03-01T19:18:10;100786.75;;;7.36;100.00
35553;BME280;21656;46.054;13.614;2023-03-01T19:20:35;100783.13;;;7.37;99.92
35553;BME280;21656;46.054;13.614;2023-03-01T19:23:00;100774.81;;;7.42;99.91
35553;BME280;21656;46.054;13.614;2023-03-01T19:25:26;100785.91;;;7.50;97.74
35553;BME280;21656;46.054;13.614;2023-03-01T19:27:51;100771.72;;;7.48;97.74
35553;BME280;21656;46.054;13.614;2023-03-01T19:30:16;100774.91;;;7.55;96.67
35553;BME280;21656;46.054;13.614;2023-03-01T19:32:41;100772.09;;;7.56;96.15
35553;BME280;21656;46.054;13.614;2023-03-01T19:35:07;100755.94;;;7.58;96.45
35553;BME280;21656;46.054;13.614;2023-03-01T19:37:33;100753.34;;;7.56;97.35
35553;BME280;21656;46.054;13.614;2023-03-01T19:39:59;100732.41;;;7.63;95.93
35553;BME280;21656;46.054;13.614;2023-03-01T19:42:24;100733.16;;;7.65;95.50
35553;BME280;21656;46.054;13.614;2023-03-01T19:44:51;100729.72;;;7.63;95.91
35553;BME280;21656;46.054;13.614;2023-03-01T19:47:17;100728.75;;;7.64;96.14
35553;BME280;21656;46.054;13.614;2023-03-01T19:49:43;100758.34;;;7.63;96.87
35553;BME280;21656;46.054;13.614;2023-03-01T19:52:08;100716.31;;;7.63;96.14
35553;BME280;21656;46.054;13.614;2023-03-01T19:54:33;100740.63;;;7.60;95.64
35553;BME280;21656;46.054;13.614;2023-03-01T19:56:59;100779.00;;;7.60;96.14
35553;BME280;21656;46.054;13.614;2023-03-01T19:59:24;100767.59;;;7.57;96.40
35553;BME280;21656;46.054;13.614;2023-03-01T20:01:51;100747.91;;;7.58;95.94
35553;BME280;21656;46.054;13.614;2023-03-01T20:04:17;100773.44;;;7.64;95.55
35553;BME280;21656;46.054;13.614;2023-03-01T20:06:46;100782.19;;;7.67;95.21
35553;BME280;21656;46.054;13.614;2023-03-01T20:09:11;100792.78;;;7.69;94.41
35553;BME280;21656;46.054;13.614;2023-03-01T20:11:36;100787.22;;;7.72;92.26
35553;BME280;21656;46.054;13.614;2023-03-01T20:14:02;100793.94;;;7.79;91.42
35553;BME280;21656;46.054;13.614;2023-03-01T20:16:30;100768.28;;;7.75;91.23
35553;BME280;21656;46.054;13.614;2023-03-01T20:18:58;100762.94;;;7.75;92.42
35553;BME280;21656;46.054;13.614;2023-03-01T20:21:24;100761.00;;;7.77;91.08
35553;BME280;21656;46.054;13.614;2023-03-01T20:23:51;100757.16;;;7.81;90.18
35553;BME280;21656;46.054;13.614;2023-03-01T20:26:16;100746.53;;;7.79;89.00
35553;BME280;21656;46.054;13.614;2023-03-01T20:28:44;100738.59;;;7.78;89.44
35553;BME280;21656;46.054;13.614;2023-03-01T20:31:10;100743.75;;;7.81;88.96
35553;BME280;21656;46.054;13.614;2023-03-01T20:33:36;100732.06;;;7.82;88.89
35553;BME280;21656;46.054;13.614;2023-03-01T20:36:01;100719.53;;;7.82;88.15
35553;BME280;21656;46.054;13.614;2023-03-01T20:38:27;100735.06;;;7.77;88.98
35553;BME280;21656;46.054;13.614;2023-03-01T20:40:56;100747.50;;;7.78;89.24
35553;BME280;21656;46.054;13.614;2023-03-01T20:43:21;100740.44;;;7.77;88.20
35553;BME280;21656;46.054;13.614;2023-03-01T20:45:47;100739.53;;;7.77;87.74
35553;BME280;21656;46.054;13.614;2023-03-01T20:48:12;100744.06;;;7.76;87.31
35553;BME280;21656;46.054;13.614;2023-03-01T20:50:39;100751.16;;;7.77;88.02
35553;BME280;21656;46.054;13.614;2023-03-01T20:53:04;100751.16;;;7.77;88.51
35553;BME280;21656;46.054;13.614;2023-03-01T20:55:29;100747.78;;;7.74;89.71
35553;BME280;21656;46.054;13.614;2023-03-01T20:57:55;100748.06;;;7.69;91.37
35553;BME280;21656;46.054;13.614;2023-03-01T21:00:20;100763.00;;;7.59;93.34
35553;BME280;21656;46.054;13.614;2023-03-01T21:02:45;100759.69;;;7.55;94.74
35553;BME280;21656;46.054;13.614;2023-03-01T21:05:11;100741.28;;;7.49;96.00
35553;BME280;21656;46.054;13.614;2023-03-01T21:07:36;100767.16;;;7.50;95.11
35553;BME280;21656;46.054;13.614;2023-03-01T21:10:01;100755.84;;;7.59;94.01
35553;BME280;21656;46.054;13.614;2023-03-01T21:12:26;100762.06;;;7.60;93.38
35553;BME280;21656;46.054;13.614;2023-03-01T21:14:52;100768.38;;;7.59;92.12
35553;BME280;21656;46.054;13.614;2023-03-01T21:17:17;100744.81;;;7.64;92.82
35553;BME280;21656;46.054;13.614;2023-03-01T21:19:43;100758.44;;;7.61;90.88
35553;BME280;21656;46.054;13.614;2023-03-01T21:22:09;100771.63;;;7.64;90.56
35553;BME280;21656;46.054;13.614;2023-03-01T21:24:34;100762.44;;;7.68;90.95
35553;BME280;21656;46.054;13.614;2023-03-01T21:26:59;100776.63;;;7.70;90.90
35553;BME280;21656;46.054;13.614;2023-03-01T21:29:30;100782.34;;;7.64;91.89
35553;BME280;21656;46.054;13.614;2023-03-01T21:31:55;100783.13;;;7.66;90.25
35553;BME280;21656;46.054;13.614;2023-03-01T21:34:22;100791.94;;;7.68;89.07
35553;BME280;21656;46.054;13.614;2023-03-01T21:36:47;100786.28;;;7.73;88.24
35553;BME280;21656;46.054;13.614;2023-03-01T21:39:12;100783.41;;;7.76;86.89
35553;BME280;21656;46.054;13.614;2023-03-01T21:41:38;100787.53;;;7.81;85.93
35553;BME280;21656;46.054;13.614;2023-03-01T21:44:04;100777.34;;;7.87;84.81
35553;BME280;21656;46.054;13.614;2023-03-01T21:46:32;100777.56;;;7.84;84.97
35553;BME280;21656;46.054;13.614;2023-03-01T21:48:58;100782.53;;;7.90;84.40
35553;BME280;21656;46.054;13.614;2023-03-01T21:51:24;100779.09;;;7.88;84.65
35553;BME280;21656;46.054;13.614;2023-03-01T21:53:50;100760.13;;;7.91;83.83
35553;BME280;21656;46.054;13.614;2023-03-01T21:56:17;100779.75;;;7.91;83.98
35553;BME280;21656;46.054;13.614;2023-03-01T21:58:42;100770.16;;;7.87;83.77
35553;BME280;21656;46.054;13.614;2023-03-01T22:01:09;100782.72;;;7.87;84.20
35553;BME280;21656;46.054;13.614;2023-03-01T22:03:35;100781.88;;;7.86;84.19
35553;BME280;21656;46.054;13.614;2023-03-01T22:06:09;100769.88;;;7.92;83.96
35553;BME280;21656;46.054;13.614;2023-03-01T22:08:37;100770.66;;;7.94;83.15
